Time;durP1;ratioP1;P1;durP2;ratioP2;P2;SDS_P1;SDS_P2;PMS_P1;PMS_P2;Temp;Humidity;BMP_temperature;BMP_pressure;BME280_temperature;BME280_humidity;BME280_pressure;Samples;Min_cycle;Max_cycle;Signal;HPM_P1;HPM_P2
2021/11/22 00:00:30;;;;;;;;;10.75;7.50;;;;;5.84;76.73;100616.00;5037629;28;45243;-78
2021/11/22 00:02:58;;;;;;;;;10.25;8.25;;;;;5.81;77.39;100609.97;5037444;28;46947;-78
2021/11/22 00:05:23;;;;;;;;;12.75;11.25;;;;;5.76;76.81;100610.13;5037566;28;45238;-79
2021/11/22 00:07:49;;;;;;;;;18.25;13.50;;;;;5.76;77.10;100610.13;5037686;28;45343;-78
2021/11/22 00:10:15;;;;;;;;;18.75;15.50;;;;;5.80;77.07;100624.94;5037646;28;45198;-78
2021/11/22 00:12:41;;;;;;;;;17.25;14.50;;;;;5.78;77.36;100621.47;5037493;28;45199;-78
2021/11/22 00:15:09;;;;;;;;;18.50;16.00;;;;;5.74;77.26;100613.72;5037509;28;45182;-78
2021/11/22 00:17:35;;;;;;;;;17.75;11.50;;;;;5.79;76.99;100623.22;5037590;28;45254;-78
2021/11/22 00:20:03;;;;;;;;;15.00;12.25;;;;;5.74;76.79;100616.38;5037094;28;45192;-77
2021/11/22 00:22:28;;;;;;;;;20.00;14.50;;;;;5.76;76.78;100619.81;5036932;28;46049;-80
2021/11/22 00:24:54;;;;;;;;;8.25;3.50;;;;;5.76;77.25;100619.81;5037149;28;45269;-78
2021/11/22 00:27:19;;;;;;;;;11.75;10.75;;;;;5.75;77.32;100623.38;5037201;28;45345;-78
2021/11/22 00:29:45;;;;;;;;;12.75;12.50;;;;;5.74;77.13;100621.66;5037440;28;45258;-78
2021/11/22 00:32:10;;;;;;;;;18.00;16.33;;;;;5.74;76.97;100619.84;5036794;28;45322;-79
2021/11/22 00:34:42;;;;;;;;;21.75;18.25;;;;;5.73;76.66;100622.56;5037269;28;45271;-78
2021/11/22 00:37:13;;;;;;;;;19.50;18.00;;;;;5.72;76.79;100621.69;5036328;28;45186;-78
2021/11/22 00:39:39;;;;;;;;;28.00;26.50;;;;;5.70;76.72;100621.75;5036313;28;45161;-78
2021/11/22 00:42:07;;;;;;;;;23.75;21.75;;;;;5.68;76.99;100626.19;5018801;28;46437;-78
2021/11/22 00:44:33;;;;;;;;;29.00;24.25;;;;;5.67;76.87;100627.13;5035268;28;45336;-79
2021/11/22 00:46:58;;;;;;;;;18.75;18.50;;;;;5.60;76.72;100607.16;5019017;28;45355;-77
2021/11/22 00:49:24;;;;;;;;;23.00;21.75;;;;;5.60;77.02;100614.19;5036895;28;45270;-79
2021/11/22 00:51:49;;;;;;;;;20.75;19.50;;;;;5.63;76.57;100622.00;5036519;28;46100;-79
2021/11/22 00:54:14;;;;;;;;;22.75;19.00;;;;;5.60;77.02;100623.00;5036772;28;45253;-78
2021/11/22 00:56:41;;;;;;;;;21.00;17.50;;;;;5.59;76.96;100623.91;5036719;28;45281;-79
2021/11/22 00:59:06;;;;;;;;;20.25;18.25;;;;;5.55;77.00;100621.41;5036923;28;45313;-79
2021/11/22 01:01:32;;;;;;;;;25.00;17.75;;;;;5.57;77.04;100624.84;5036219;28;46380;-79
2021/11/22 01:03:57;;;;;;;;;15.00;12.50;;;;;5.57;76.95;100635.41;5036889;28;45389;-79
2021/11/22 01:06:22;;;;;;;;;10.25;9.25;;;;;5.55;76.90;100643.38;5036616;28;45491;-79
2021/11/22 01:08:47;;;;;;;;;11.00;8.50;;;;;5.53;77.21;100645.22;5036715;28;45205;-79
2021/11/22 01:11:13;;;;;;;;;8.00;7.00;;;;;5.52;76.64;100652.22;5036361;28;45221;-79
2021/11/22 01:13:39;;;;;;;;;10.00;7.50;;;;;5.50;76.68;100648.81;5036292;28;45215;-79
2021/11/22 01:16:05;;;;;;;;;14.25;8.00;;;;;5.49;76.39;100656.75;5018775;28;45207;-79
2021/11/22 01:18:30;;;;;;;;;11.50;8.50;;;;;5.46;76.68;100660.34;5036259;28;45199;-79
2021/11/22 01:20:56;;;;;;;;;14.25;9.50;;;;;5.46;76.69;100659.50;5035599;28;46299;-78
2021/11/22 01:23:22;;;;;;;;;22.25;15.00;;;;;5.45;76.70;100663.91;5036352;28;45915;-79
2021/11/22 01:25:47;;;;;;;;;16.50;13.00;;;;;5.42;77.01;100664.00;5036055;28;45167;-79
2021/11/22 01:28:14;;;;;;;;;26.25;21.75;;;;;5.36;76.78;100657.16;5018343;28;45241;-79
2021/11/22 01:30:40;;;;;;;;;21.75;17.25;;;;;5.39;76.79;100665.84;5035732;28;48195;-79
2021/11/22 01:33:06;;;;;;;;;11.50;10.50;;;;;5.36;77.15;100656.31;5036402;28;45318;-79
2021/11/22 01:35:32;;;;;;;;;10.50;10.00;;;;;5.36;77.05;100665.06;5036566;28;45297;-79
2021/11/22 01:37:57;;;;;;;;;7.75;6.25;;;;;5.32;77.20;100655.53;5036346;28;45218;-79
2021/11/22 01:40:26;;;;;;;;;8.25;5.50;;;;;5.34;76.87;100663.38;5035522;28;45325;-79
2021/11/22 01:42:52;;;;;;;;;7.50;4.50;;;;;5.32;77.12;100663.44;5036419;28;45380;-79
2021/11/22 01:45:20;;;;;;;;;7.25;3.50;;;;;5.32;77.06;100673.13;5036199;28;45377;-79
2021/11/22 01:47:46;;;;;;;;;6.25;4.25;;;;;5.32;76.76;100673.97;5036248;28;45249;-79
2021/11/22 01:50:16;;;;;;;;;4.75;3.00;;;;;5.30;76.87;100665.28;5036192;28;46205;-79
2021/11/22 01:52:42;;;;;;;;;9.50;5.50;;;;;5.28;77.23;100672.34;5039776;28;45691;-79
2021/11/22 01:55:10;;;;;;;;;5.75;4.25;;;;;5.27;76.71;100670.63;5039680;28;45358;-79
2021/11/22 01:57:36;;;;;;;;;7.50;2.00;;;;;5.26;76.74;100682.09;5039894;28;45195;-79
2021/11/22 02:00:11;;;;;;;;;4.25;3.00;;;;;5.25;76.79;100683.00;5020620;28;47564;-79
2021/11/22 02:02:36;;;;;;;;;4.75;3.00;;;;;5.17;76.79;100672.69;5039417;28;45663;-79
2021/11/22 02:05:02;;;;;;;;;4.50;3.25;;;;;5.23;76.51;100687.47;5039311;28;45475;-78
2021/11/22 02:07:28;;;;;;;;;3.75;3.75;;;;;5.20;76.93;100690.16;5039710;28;45289;-79
2021/11/22 02:09:53;;;;;;;;;8.00;4.00;;;;;5.17;76.74;100696.44;5039277;28;45284;-79
2021/11/22 02:12:19;;;;;;;;;3.75;3.00;;;;;5.18;76.92;100692.84;5039283;28;45207;-78
2021/11/22 02:14:44;;;;;;;;;8.75;5.25;;;;;5.17;76.73;100696.44;5021140;28;45215;-79
2021/11/22 02:17:11;;;;;;;;;6.50;4.00;;;;;5.11;77.02;100688.69;5039412;28;45216;-79
2021/11/22 02:19:38;;;;;;;;;4.75;3.00;;;;;5.15;76.75;100697.38;5038989;28;45314;-79
2021/11/22 02:22:04;;;;;;;;;7.75;6.00;;;;;5.12;76.58;100694.84;5038801;28;45683;-79
2021/11/22 02:24:29;;;;;;;;;13.00;9.00;;;;;5.10;76.67;100694.00;5039344;28;45261;-78
2021/11/22 02:26:56;;;;;;;;;13.00;13.00;;;;;5.11;77.22;100703.66;5038956;28;45314;-79
2021/11/22 02:29:21;;;;;;;;;18.25;15.00;;;;;5.10;76.92;100699.28;5039008;28;46298;-79
2021/11/22 02:31:46;;;;;;;;;24.00;20.00;;;;;5.10;76.72;100700.16;5039068;28;45140;-79
2021/11/22 02:34:13;;;;;;;;;20.25;14.50;;;;;5.09;76.64;100708.06;5038972;28;45159;-78
2021/11/22 02:36:38;;;;;;;;;18.50;13.75;;;;;5.06;76.63;100703.78;5038828;28;45485;-79
2021/11/22 02:39:03;;;;;;;;;7.25;7.25;;;;;5.05;76.74;100701.22;5038674;28;45303;-79
2021/11/22 02:41:30;;;;;;;;;10.50;8.00;;;;;5.03;77.07;100703.88;5020895;28;45100;-79
2021/11/22 02:43:56;;;;;;;;;9.75;8.50;;;;;5.05;77.02;100706.47;5021025;28;45245;-79
2021/11/22 02:46:22;;;;;;;;;8.75;4.50;;;;;5.04;76.83;100702.97;5038893;28;45270;-79
2021/11/22 02:48:48;;;;;;;;;8.75;4.00;;;;;5.04;76.97;100710.00;5038855;28;45421;-79
2021/11/22 02:51:13;;;;;;;;;14.00;5.75;;;;;5.00;76.98;100704.84;5038667;28;45246;-79
2021/11/22 02:53:39;;;;;;;;;6.75;4.00;;;;;5.01;76.60;100700.41;5039011;28;45437;-79
2021/11/22 02:56:07;;;;;;;;;3.75;3.00;;;;;5.00;76.73;100701.31;5038818;28;45314;-79
2021/11/22 02:58:35;;;;;;;;;5.00;3.00;;;;;4.99;76.63;100707.53;5038622;28;46846;-79
2021/11/22 03:01:02;;;;;;;;;6.00;4.00;;;;;4.99;76.98;100718.06;5020271;28;45729;-79
2021/11/22 03:03:29;;;;;;;;;7.00;4.50;;;;;4.94;76.55;100712.91;5038897;28;45213;-79
2021/11/22 03:06:10;;;;;;;;;5.25;4.75;;;;;4.93;76.78;100724.38;5038525;28;45331;-79
2021/11/22 03:08:40;;;;;;;;;3.75;3.75;;;;;4.93;76.71;100718.22;5038378;28;46501;-77
2021/11/22 03:11:07;;;;;;;;;4.25;4.25;;;;;4.93;77.00;100720.84;5038255;28;45695;-78
2021/11/22 03:13:32;;;;;;;;;6.00;2.50;;;;;4.93;76.69;100721.75;5038663;28;45569;-78
2021/11/22 03:15:59;;;;;;;;;4.00;4.00;;;;;4.93;77.02;100721.75;5020556;28;45316;-78
2021/11/22 03:18:24;;;;;;;;;7.50;4.00;;;;;4.92;76.57;100717.38;5038295;28;45866;-78
2021/11/22 03:20:49;;;;;;;;;4.50;4.50;;;;;4.92;77.10;100722.63;5038076;28;45132;-78
2021/11/22 03:23:15;;;;;;;;;8.00;4.50;;;;;4.90;76.71;100726.22;5038461;28;45194;-78
2021/11/22 03:25:40;;;;;;;;;9.25;4.00;;;;;4.89;77.01;100727.13;5038331;28;45229;-78
2021/11/22 03:28:07;;;;;;;;;6.50;4.00;;;;;4.89;76.81;100738.53;5037878;28;46976;-78
2021/11/22 03:30:32;;;;;;;;;9.50;3.00;;;;;4.83;76.59;100731.69;5037962;28;45767;-78
2021/11/22 03:32:57;;;;;;;;;6.25;4.00;;;;;4.87;76.98;100740.34;5038423;28;45203;-78
2021/11/22 03:35:23;;;;;;;;;3.50;3.00;;;;;4.83;76.59;100736.06;5038174;28;45297;-76
2021/11/22 03:37:49;;;;;;;;;6.50;4.50;;;;;4.83;77.01;100743.97;5038053;28;45479;-78
2021/11/22 03:40:15;;;;;;;;;7.00;4.00;;;;;4.80;77.06;100739.69;5037750;28;45316;-78
2021/11/22 03:42:41;;;;;;;;;6.00;3.00;;;;;4.81;76.71;100745.78;5020018;28;45234;-78
2021/11/22 03:45:09;;;;;;;;;4.00;3.25;;;;;4.79;76.92;100748.47;5037537;28;45295;-78
2021/11/22 03:47:35;;;;;;;;;4.00;2.75;;;;;4.76;76.79;100752.94;5037558;28;46100;-78
2021/11/22 03:50:01;;;;;;;;;8.50;4.25;;;;;4.76;76.68;100761.75;5037891;28;45255;-77
2021/11/22 03:52:26;;;;;;;;;7.00;5.00;;;;;4.71;76.88;100752.22;5037824;28;45214;-78
2021/11/22 03:54:51;;;;;;;;;4.25;4.25;;;;;4.73;77.11;100769.72;5019788;28;45314;-78
2021/11/22 03:57:17;;;;;;;;;6.00;3.25;;;;;4.72;77.10;100767.09;5037525;28;46103;-78
2021/11/22 03:59:42;;;;;;;;;3.25;2.25;;;;;4.69;76.76;100770.72;5037472;28;45208;-77
2021/11/22 04:02:07;;;;;;;;;7.00;3.00;;;;;4.73;77.18;100763.56;5037649;28;45174;-78
2021/11/22 04:04:33;;;;;;;;;5.75;3.25;;;;;4.65;77.00;100759.38;5037881;28;45305;-77
2021/11/22 04:07:00;;;;;;;;;3.33;3.00;;;;;4.72;76.81;100778.53;5036236;28;46179;-77
2021/11/22 04:09:25;;;;;;;;;4.75;4.00;;;;;4.72;76.64;100782.91;5037380;28;45676;-78
2021/11/22 04:11:51;;;;;;;;;3.00;3.00;;;;;4.71;77.02;100791.75;5037915;28;45219;-78
2021/11/22 04:14:16;;;;;;;;;3.00;2.25;;;;;4.71;76.88;100791.75;5018902;28;45188;-78
2021/11/22 04:16:42;;;;;;;;;7.25;4.50;;;;;4.70;76.72;100792.63;5037336;28;46297;-78
2021/11/22 04:19:08;;;;;;;;;7.00;3.00;;;;;4.66;76.76;100790.09;5037313;28;45222;-78
2021/11/22 04:21:34;;;;;;;;;3.75;0.00;;;;;4.69;77.21;100798.81;5037040;28;45317;-78
2021/11/22 04:23:59;;;;;;;;;8.25;3.25;;;;;4.68;76.73;100797.94;5037420;28;45619;-77
2021/11/22 04:26:25;;;;;;;;;8.00;4.00;;;;;4.69;76.93;100793.53;5036077;28;46233;-78
2021/11/22 04:28:50;;;;;;;;;8.75;3.75;;;;;4.68;76.97;100799.72;5037308;28;45211;-78
2021/11/22 04:31:16;;;;;;;;;5.50;3.50;;;;;4.69;76.97;100804.06;5037520;28;45407;-78
2021/11/22 04:33:41;;;;;;;;;7.00;2.00;;;;;4.70;76.83;100805.81;5037513;28;45217;-77
2021/11/22 04:36:08;;;;;;;;;3.00;3.00;;;;;4.70;76.80;100803.19;5037115;28;45292;-78
2021/11/22 04:38:35;;;;;;;;;4.75;3.50;;;;;4.66;76.77;100805.91;5035536;28;45762;-78
2021/11/22 04:41:00;;;;;;;;;3.75;2.50;;;;;4.64;76.53;100806.84;5036799;28;45193;-78
2021/11/22 04:43:26;;;;;;;;;4.50;3.75;;;;;4.64;76.77;100820.84;5037253;28;45323;-77
2021/11/22 04:45:51;;;;;;;;;4.00;2.75;;;;;4.63;77.11;100813.88;5019017;28;46552;-77
2021/11/22 04:48:16;;;;;;;;;8.00;5.00;;;;;4.59;77.08;100817.50;5037245;28;45152;-78
2021/11/22 04:50:42;;;;;;;;;8.00;3.00;;;;;4.59;76.43;100825.41;5036941;28;45187;-77
2021/11/22 04:53:07;;;;;;;;;6.50;2.50;;;;;4.61;76.80;100835.91;5035867;28;45274;-78
2021/11/22 04:55:33;;;;;;;;;7.25;3.00;;;;;4.60;77.06;100837.69;5036769;28;45727;-77
2021/11/22 04:57:59;;;;;;;;;3.00;2.50;;;;;4.63;77.17;100844.59;5036822;28;45195;-77
2021/11/22 05:00:25;;;;;;;;;3.50;3.00;;;;;4.64;77.03;100841.94;5019023;28;45173;-78
2021/11/22 05:02:51;;;;;;;;;6.00;3.00;;;;;4.66;77.00;100847.19;5037213;28;45139;-78
2021/11/22 05:05:17;;;;;;;;;4.00;4.00;;;;;4.69;77.51;100843.59;5036421;28;46160;-78
2021/11/22 05:07:43;;;;;;;;;3.25;3.25;;;;;4.73;77.63;100850.50;5036782;28;45187;-78
2021/11/22 05:10:10;;;;;;;;;7.75;6.50;;;;;4.75;77.14;100846.06;5036591;28;45247;-78
2021/11/22 05:12:36;;;;;;;;;5.00;4.50;;;;;4.77;77.17;100857.41;5036932;28;45192;-78
2021/11/22 05:15:02;;;;;;;;;8.25;3.25;;;;;4.80;76.88;100860.84;5035709;28;45483;-78
2021/11/22 05:17:28;;;;;;;;;8.00;5.25;;;;;4.78;77.26;100848.63;5036437;28;45723;-78
2021/11/22 05:19:53;;;;;;;;;3.75;3.75;;;;;4.82;77.33;100853.75;5036493;28;45215;-78
2021/11/22 05:22:21;;;;;;;;;6.25;4.00;;;;;4.84;76.93;100854.59;5036476;28;45194;-78
2021/11/22 05:24:49;;;;;;;;;4.00;4.00;;;;;4.88;77.14;100862.41;5036464;28;46558;-78
2021/11/22 05:27:23;;;;;;;;;11.75;4.50;;;;;4.89;76.79;100865.00;5036203;28;45257;-78
2021/11/22 05:29:49;;;;;;;;;7.50;4.00;;;;;4.89;77.27;100861.50;5036461;28;45267;-78
2021/11/22 05:32:16;;;;;;;;;6.75;3.75;;;;;4.89;77.08;100858.84;5036239;28;45342;-78
2021/11/22 05:34:47;;;;;;;;;7.75;4.00;;;;;4.82;76.52;100855.53;5036198;28;47086;-77
2021/11/22 05:37:13;;;;;;;;;7.00;3.75;;;;;4.86;76.88;100873.00;5036245;28;45204;-78
2021/11/22 05:39:38;;;;;;;;;7.00;5.00;;;;;4.86;76.66;100877.38;5036383;28;45274;-78
2021/11/22 05:42:04;;;;;;;;;7.50;3.50;;;;;4.85;77.02;100884.44;5036445;28;45345;-78
2021/11/22 05:44:33;;;;;;;;;0.00;0.00;;;;;4.83;76.69;100880.97;5036297;28;46218;-78
2021/11/22 05:46:58;;;;;;;;;8.00;6.00;;;;;4.79;76.67;100888.09;5036271;28;45162;-76
2021/11/22 05:49:23;;;;;;;;;6.00;6.00;;;;;4.78;76.95;100883.72;5036210;28;45229;-78
2021/11/22 05:51:50;;;;;;;;;8.25;4.00;;;;;4.77;76.97;100889.03;5036270;28;45221;-81
2021/11/22 05:54:15;;;;;;;;;9.00;5.25;;;;;4.75;76.97;100888.22;5036179;28;45647;-78
2021/11/22 05:56:43;;;;;;;;;10.25;3.50;;;;;4.75;77.16;100886.44;5036131;28;45132;-82
2021/11/22 05:59:08;;;;;;;;;8.50;5.00;;;;;4.79;77.08;100895.16;5036236;28;45216;-83
2021/11/22 06:01:33;;;;;;;;;7.25;6.25;;;;;4.78;77.14;100893.41;5035729;28;45370;-82
2021/11/22 06:03:59;;;;;;;;;9.50;7.00;;;;;4.76;77.17;100890.81;5018100;28;48311;-83
2021/11/22 06:06:24;;;;;;;;;8.50;7.00;;;;;4.81;77.50;100895.97;5036046;28;45206;-83
2021/11/22 06:08:49;;;;;;;;;9.25;5.25;;;;;4.77;77.34;100887.25;5017916;28;45339;-83
2021/11/22 06:11:15;;;;;;;;;8.00;8.00;;;;;4.84;77.57;100904.66;5036007;28;45324;-84
2021/11/22 06:13:40;;;;;;;;;12.75;7.50;;;;;4.91;77.67;100907.97;5017595;28;47166;-78
2021/11/22 06:16:06;;;;;;;;;12.50;8.00;;;;;4.94;77.97;100914.94;5034756;28;45257;-78
2021/11/22 06:18:31;;;;;;;;;9.25;8.50;;;;;4.99;77.86;100911.28;5036167;28;45241;-78
2021/11/22 06:20:57;;;;;;;;;12.25;8.50;;;;;5.00;77.67;100918.31;5035698;28;45181;-78
2021/11/22 06:23:22;;;;;;;;;10.75;9.00;;;;;5.09;77.70;100918.94;5035761;28;45285;-78
2021/11/22 06:25:47;;;;;;;;;17.75;11.00;;;;;5.09;78.11;100921.56;5035715;28;45199;-78
2021/11/22 06:28:13;;;;;;;;;11.00;10.00;;;;;5.17;77.80;100931.03;5036032;28;45220;-78
2021/11/22 06:30:38;;;;;;;;;13.75;9.25;;;;;5.20;77.62;100930.06;5035772;28;45218;-78
2021/11/22 06:33:04;;;;;;;;;20.25;14.50;;;;;5.24;77.62;100934.34;5035757;28;45236;-78
2021/11/22 06:35:29;;;;;;;;;15.50;13.50;;;;;5.28;77.30;100943.06;5035953;28;45512;-78
2021/11/22 06:37:55;;;;;;;;;12.00;11.00;;;;;5.29;77.35;100943.00;5038188;28;45327;-78
2021/11/22 06:40:20;;;;;;;;;18.00;13.25;;;;;5.28;77.72;100946.53;5038838;28;45334;-78
2021/11/22 06:42:46;;;;;;;;;13.00;13.00;;;;;5.33;77.51;100949.03;5039315;28;46578;-78
2021/11/22 06:45:13;;;;;;;;;14.00;13.00;;;;;5.35;77.31;100957.78;5038954;28;45492;-78
2021/11/22 06:47:39;;;;;;;;;11.50;11.00;;;;;5.38;77.39;100968.25;5039131;28;45221;-78
2021/11/22 06:50:05;;;;;;;;;19.00;15.50;;;;;5.40;77.46;100971.72;5038996;28;45160;-78
2021/11/22 06:52:30;;;;;;;;;18.50;12.75;;;;;5.42;77.71;100974.31;5038963;28;46121;-79
2021/11/22 06:54:56;;;;;;;;;16.00;14.50;;;;;5.43;77.39;100976.91;5038811;28;45390;-78
2021/11/22 06:57:23;;;;;;;;;15.50;14.50;;;;;5.41;77.14;100984.00;5039150;28;45305;-78
2021/11/22 06:59:49;;;;;;;;;23.50;17.00;;;;;5.39;76.88;100988.44;5038554;28;45159;-78
2021/11/22 07:02:16;;;;;;;;;14.75;14.75;;;;;5.36;77.03;100993.81;5038410;28;45366;-78
2021/11/22 07:04:43;;;;;;;;;17.00;15.25;;;;;5.38;77.02;100999.91;5038533;28;45174;-78
2021/11/22 07:07:09;;;;;;;;;16.50;12.25;;;;;5.37;76.79;100998.16;5038586;28;45281;-78
2021/11/22 07:09:35;;;;;;;;;15.00;13.75;;;;;5.40;77.06;101018.31;5038927;28;45214;-78
2021/11/22 07:12:02;;;;;;;;;16.75;15.75;;;;;5.39;77.18;101003.38;5037770;28;45479;-78
2021/11/22 07:14:27;;;;;;;;;14.00;14.00;;;;;5.38;76.27;101020.13;5038757;28;45162;-78
2021/11/22 07:16:53;;;;;;;;;13.50;10.75;;;;;5.34;76.35;101029.88;5039311;28;45140;-78
2021/11/22 07:19:19;;;;;;;;;15.50;14.00;;;;;5.32;76.68;101026.44;5038447;28;45101;-78
2021/11/22 07:21:45;;;;;;;;;18.50;15.00;;;;;5.32;76.65;101026.44;5039012;28;45349;-78
2021/11/22 07:24:10;;;;;;;;;18.25;13.75;;;;;5.32;77.00;101023.81;5039029;28;45255;-78
2021/11/22 07:26:36;;;;;;;;;14.50;14.50;;;;;5.33;76.38;101030.78;5020878;28;45291;-78
2021/11/22 07:29:02;;;;;;;;;14.50;13.00;;;;;5.36;76.50;101042.13;5039379;28;45191;-78
2021/11/22 07:31:28;;;;;;;;;19.75;16.25;;;;;5.30;76.22;101039.66;5020415;28;46369;-78
2021/11/22 07:33:53;;;;;;;;;14.25;12.75;;;;;5.36;76.13;101042.13;5020045;28;45311;-78
2021/11/22 07:36:18;;;;;;;;;12.75;10.00;;;;;5.38;76.59;101050.00;5020358;28;45268;-78
2021/11/22 07:38:44;;;;;;;;;17.00;16.00;;;;;5.39;76.68;101053.50;5038114;28;45242;-78
2021/11/22 07:41:09;;;;;;;;;15.75;13.50;;;;;5.41;76.47;101055.19;5037819;28;45359;-78
2021/11/22 07:43:35;;;;;;;;;17.50;14.00;;;;;5.44;76.75;101064.81;5036898;28;45306;-78
2021/11/22 07:46:01;;;;;;;;;15.00;14.00;;;;;5.45;76.49;101071.81;5038267;28;45344;-78
2021/11/22 07:48:26;;;;;;;;;14.50;13.00;;;;;5.45;76.01;101069.19;5036967;28;45235;-78
2021/11/22 07:50:52;;;;;;;;;14.75;11.00;;;;;5.47;76.51;101076.16;5037764;28;46479;-78
2021/11/22 07:53:17;;;;;;;;;18.50;13.75;;;;;5.47;76.40;101081.44;5038138;28;45180;-78
2021/11/22 07:55:44;;;;;;;;;16.50;14.25;;;;;5.45;76.26;101091.13;5038673;28;45184;-78
2021/11/22 07:58:10;;;;;;;;;14.50;11.75;;;;;5.49;75.97;101092.78;5038008;28;45108;-78
2021/11/22 08:00:35;;;;;;;;;12.25;12.25;;;;;5.52;75.95;101094.50;5037512;28;46048;-78
2021/11/22 08:03:00;;;;;;;;;16.00;14.00;;;;;5.55;76.10;101096.19;5038556;28;45148;-78
2021/11/22 08:05:28;;;;;;;;;10.33;10.33;;;;;5.56;76.03;101092.63;5037879;28;45231;-78
2021/11/22 08:07:55;;;;;;;;;13.50;10.25;;;;;5.60;75.97;101089.88;5037913;28;45235;-78
2021/11/22 08:12:47;;;;;;;;;13.75;11.25;;;;;5.65;75.80;101092.41;5037520;28;45692;-78
2021/11/22 08:15:13;;;;;;;;;10.75;9.50;;;;;5.69;75.38;101094.06;5037649;28;45136;-78
2021/11/22 08:17:40;;;;;;;;;16.25;10.75;;;;;5.70;75.26;101099.28;5037131;28;45188;-78
2021/11/22 08:20:07;;;;;;;;;17.00;14.00;;;;;5.67;75.46;101096.72;5037271;28;46107;-78
2021/11/22 08:22:33;;;;;;;;;10.75;10.75;;;;;5.70;75.15;101099.28;5019470;28;45782;-78
2021/11/22 08:24:58;;;;;;;;;15.25;9.75;;;;;5.70;74.94;101112.47;5020002;28;45259;-78
2021/11/22 08:27:27;;;;;;;;;15.00;9.75;;;;;5.67;75.02;101095.84;5037529;28;45291;-78
2021/11/22 08:29:53;;;;;;;;;14.25;11.00;;;;;5.75;74.90;101112.34;5018976;28;46250;-78
2021/11/22 08:32:19;;;;;;;;;11.50;10.25;;;;;5.76;75.33;101114.09;5036961;28;45190;-78
2021/11/22 08:34:44;;;;;;;;;10.25;8.00;;;;;5.80;75.21;101117.50;5037107;28;45148;-78
2021/11/22 08:37:11;;;;;;;;;10.50;8.75;;;;;5.81;75.10;101120.09;5037313;28;45100;-78
2021/11/22 08:39:36;;;;;;;;;16.50;13.25;;;;;5.81;75.06;101111.31;5019019;28;46473;-78
2021/11/22 08:42:03;;;;;;;;;9.75;7.75;;;;;5.85;74.98;101121.75;5036958;28;45187;-78
2021/11/22 08:44:30;;;;;;;;;10.75;10.75;;;;;5.88;74.54;101140.13;5037432;28;45243;-78
2021/11/22 08:46:55;;;;;;;;;13.50;12.00;;;;;5.90;75.17;101133.97;5037041;28;45239;-78
2021/11/22 08:49:21;;;;;;;;;12.00;10.00;;;;;5.91;75.06;101135.69;5037052;28;45319;-78
2021/11/22 08:51:46;;;;;;;;;13.25;10.25;;;;;5.93;74.54;101140.03;5036898;28;45199;-78
2021/11/22 08:54:13;;;;;;;;;14.50;12.00;;;;;5.93;75.03;101147.06;5037058;28;45277;-78
2021/11/22 08:56:38;;;;;;;;;13.75;11.75;;;;;5.95;74.94;101151.41;5037222;28;45217;-78
2021/11/22 08:59:04;;;;;;;;;13.75;9.50;;;;;5.98;74.69;101147.88;5036445;28;45996;-78
2021/11/22 09:01:30;;;;;;;;;12.00;9.00;;;;;5.95;74.51;101137.34;5036610;28;45137;-78
2021/11/22 09:03:56;;;;;;;;;11.50;8.50;;;;;6.00;74.30;101151.31;5036967;28;45136;-78
2021/11/22 09:06:22;;;;;;;;;9.50;8.25;;;;;6.02;74.65;101153.00;5036963;28;45242;-78
2021/11/22 09:08:48;;;;;;;;;10.50;8.75;;;;;6.04;74.06;101152.97;5036801;28;46492;-79
2021/11/22 09:11:15;;;;;;;;;10.00;7.25;;;;;6.10;74.68;101159.84;5036464;28;45364;-78
2021/11/22 09:13:41;;;;;;;;;12.00;9.75;;;;;6.13;74.17;101160.66;5036874;28;45168;-78
2021/11/22 09:16:06;;;;;;;;;10.50;7.00;;;;;6.15;73.65;101158.81;5018411;28;45321;-78
2021/11/22 09:18:32;;;;;;;;;8.25;7.75;;;;;6.17;73.78;101164.94;5034938;28;46140;-78
2021/11/22 09:20:57;;;;;;;;;10.00;8.75;;;;;6.20;73.56;101170.13;5036181;28;45314;-78
2021/11/22 09:23:23;;;;;;;;;11.00;7.00;;;;;6.24;73.72;101173.53;5036625;28;45116;-78
2021/11/22 09:25:51;;;;;;;;;8.50;5.75;;;;;6.23;73.65;101171.84;5036695;28;45360;-78
2021/11/22 09:28:17;;;;;;;;;12.00;8.50;;;;;6.29;74.08;101168.16;5035571;28;45385;-78
2021/11/22 09:30:42;;;;;;;;;15.50;9.50;;;;;6.36;73.35;101185.56;5036035;28;45282;-78
2021/11/22 09:33:10;;;;;;;;;8.75;6.25;;;;;6.38;73.37;101183.75;5036889;28;45237;-78
2021/11/22 09:35:36;;;;;;;;;9.25;8.00;;;;;6.39;73.09;101180.19;5036547;28;45268;-78
2021/11/22 09:38:02;;;;;;;;;10.75;9.00;;;;;6.42;73.23;101190.66;5036594;28;45951;-78
2021/11/22 09:40:27;;;;;;;;;8.75;8.00;;;;;6.46;72.22;101188.81;5036147;28;45621;-78
2021/11/22 09:42:55;;;;;;;;;8.75;5.25;;;;;6.49;72.82;101197.50;5036586;28;45145;-78
2021/11/22 09:45:21;;;;;;;;;9.50;5.00;;;;;6.51;71.96;101200.09;5036281;28;45220;-78
2021/11/22 09:47:46;;;;;;;;;7.00;4.00;;;;;6.51;70.83;101190.44;5036197;28;45964;-78
2021/11/22 09:50:12;;;;;;;;;7.00;5.25;;;;;6.44;71.42;101194.16;5035988;28;45703;-78
2021/11/22 09:52:38;;;;;;;;;10.25;9.00;;;;;6.49;71.44;101201.94;5036322;28;45228;-78
2021/11/22 09:55:05;;;;;;;;;9.00;6.25;;;;;6.53;71.80;101198.31;5036300;28;45243;-78
2021/11/22 09:57:30;;;;;;;;;8.00;5.25;;;;;6.54;71.75;101213.22;5036176;28;46625;-78
2021/11/22 09:59:55;;;;;;;;;8.25;6.25;;;;;6.57;71.80;101215.81;5035948;28;45227;-78
2021/11/22 10:02:43;;;;;;;;;9.75;8.75;;;;;6.62;72.09;101223.59;5036206;28;45203;-78
2021/11/22 10:05:30;;;;;;;;;8.75;7.50;;;;;6.64;71.86;101221.78;5036136;28;45159;-78
2021/11/22 10:08:05;;;;;;;;;12.50;5.75;;;;;6.63;71.80;101223.56;5036163;28;45472;-78
2021/11/22 10:10:32;;;;;;;;;8.00;6.00;;;;;6.64;71.34;101216.47;5035684;28;45311;-78
2021/11/22 10:12:59;;;;;;;;;11.25;9.50;;;;;6.65;71.84;101212.94;5038888;28;45235;-79
2021/11/22 10:15:24;;;;;;;;;10.00;6.50;;;;;6.69;71.89;101220.72;5039453;28;45313;-78
2021/11/22 10:17:50;;;;;;;;;10.50;10.00;;;;;6.78;72.08;101221.38;5039508;28;45184;-78
2021/11/22 10:20:18;;;;;;;;;7.50;7.50;;;;;6.84;71.42;101219.44;5038916;28;45333;-79
2021/11/22 10:22:50;;;;;;;;;8.00;6.50;;;;;6.90;71.29;101221.03;5039497;28;45215;-78
2021/11/22 10:25:20;;;;;;;;;7.75;6.00;;;;;6.92;70.95;101216.56;5039407;28;45354;-78
2021/11/22 10:27:45;;;;;;;;;9.00;9.00;;;;;6.94;71.06;101219.16;5039509;28;46290;-78
2021/11/22 10:30:26;;;;;;;;;8.75;5.00;;;;;6.91;70.68;101215.69;5038912;28;45219;-79
2021/11/22 10:32:56;;;;;;;;;9.00;9.00;;;;;6.97;70.50;101219.94;5020864;28;45212;-78
2021/11/22 10:35:24;;;;;;;;;10.75;9.00;;;;;7.00;70.72;101221.63;5039303;28;45271;-78
2021/11/22 10:38:15;;;;;;;;;11.25;9.00;;;;;7.01;70.64;101224.22;5039198;28;45195;-78
2021/11/22 10:40:44;;;;;;;;;6.50;5.00;;;;;7.03;70.55;101219.75;5031257;28;45207;-78
2021/11/22 10:43:10;;;;;;;;;9.25;7.00;;;;;7.07;70.08;101231.13;5021325;28;45235;-78
2021/11/22 10:45:39;;;;;;;;;7.25;5.25;;;;;7.08;70.06;101222.25;5038927;28;45237;-78
2021/11/22 10:48:30;;;;;;;;;7.00;5.25;;;;;7.09;69.97;101227.47;5038401;28;45220;-78
2021/11/22 10:51:15;;;;;;;;;4.25;4.00;;;;;7.12;70.27;101229.19;5038336;28;45657;-78
2021/11/22 10:53:47;;;;;;;;;6.25;6.25;;;;;7.11;70.21;101231.88;5038929;28;45277;-78
2021/11/22 10:56:17;;;;;;;;;4.75;4.75;;;;;7.08;69.63;101228.41;5038858;28;45183;-78
2021/11/22 10:58:53;;;;;;;;;7.25;6.00;;;;;7.06;69.76;101232.88;5038369;28;46136;-78
2021/11/22 11:01:23;;;;;;;;;9.00;6.00;;;;;7.09;69.56;101258.38;5038321;28;45276;-78
2021/11/22 11:03:49;;;;;;;;;5.00;5.00;;;;;7.08;69.30;101251.34;5038106;28;45219;-78
2021/11/22 11:06:15;;;;;;;;;8.00;5.25;;;;;7.05;69.12;101254.06;5038900;28;45364;-78
2021/11/22 11:08:42;;;;;;;;;8.50;5.00;;;;;7.04;68.89;101247.94;5038736;28;45881;-78
2021/11/22 11:11:16;;;;;;;;;6.25;5.00;;;;;7.05;69.19;101252.31;5020217;28;45254;-78
2021/11/22 11:13:47;;;;;;;;;5.00;4.00;;;;;7.06;68.86;101251.38;5038941;28;45147;-78
2021/11/22 11:16:14;;;;;;;;;7.00;5.25;;;;;7.04;69.39;101263.78;5037584;28;45284;-78
2021/11/22 11:18:39;;;;;;;;;4.75;4.75;;;;;7.01;68.40;101258.59;5038329;28;46081;-78
2021/11/22 11:21:05;;;;;;;;;8.50;5.75;;;;;7.04;68.96;101252.34;5036114;28;45413;-78
2021/11/22 11:23:31;;;;;;;;;5.75;5.75;;;;;7.06;68.48;101239.94;5038679;28;45221;-78
2021/11/22 11:25:56;;;;;;;;;8.00;6.00;;;;;7.09;67.95;101247.78;5038506;28;45311;-79